createdAt,value
2016-06-30T00:00:09.447Z,1004.63
2016-06-30T00:01:09.450Z,1004.58
2016-06-30T00:02:09.453Z,1004.61
2016-06-30T00:03:09.457Z,1004.58
2016-06-30T00:04:09.462Z,1004.58
2016-06-30T00:05:09.467Z,1004.61
2016-06-30T00:06:09.471Z,1004.64
2016-06-30T00:07:09.485Z,1004.63
2016-06-30T00:08:09.476Z,1004.65
2016-06-30T00:09:09.631Z,1004.71
2016-06-30T00:10:09.491Z,1004.67
2016-06-30T00:11:09.494Z,1004.7
2016-06-30T00:12:09.532Z,1004.67
2016-06-30T00:13:09.500Z,1004.63
2016-06-30T00:14:09.518Z,1004.63
2016-06-30T00:15:09.506Z,1004.58
2016-06-30T00:16:09.518Z,1004.59
2016-06-30T00:17:09.522Z,1004.62
2016-06-30T00:18:09.523Z,1004.55
2016-06-30T00:19:09.555Z,1004.54
2016-06-30T00:20:09.531Z,1004.55
2016-06-30T00:21:09.550Z,1004.53
2016-06-30T00:22:09.541Z,1004.51
2016-06-30T00:23:09.547Z,1004.53
2016-06-30T00:24:09.546Z,1004.52
2016-06-30T00:25:09.556Z,1004.56
2016-06-30T00:26:09.568Z,1004.57
2016-06-30T00:27:09.567Z,1004.57
2016-06-30T00:28:09.573Z,1004.58
2016-06-30T00:29:09.575Z,1004.61
2016-06-30T00:30:09.576Z,1004.57
2016-06-30T00:31:09.580Z,1004.58
2016-06-30T00:32:09.630Z,1004.57
2016-06-30T00:33:10.437Z,1004.57
2016-06-30T00:34:09.590Z,1004.6
2016-06-30T00:35:09.591Z,1004.54
2016-06-30T00:36:09.605Z,1004.6
2016-06-30T00:37:09.603Z,1004.6
2016-06-30T00:38:09.610Z,1004.6
2016-06-30T00:39:09.622Z,1004.59
2016-06-30T00:40:09.623Z,1004.55
2016-06-30T00:41:09.621Z,1004.49
2016-06-30T00:42:09.625Z,1004.55
2016-06-30T00:43:09.632Z,1004.53
2016-06-30T00:44:09.631Z,1004.51
2016-06-30T00:45:09.639Z,1004.53
2016-06-30T00:46:09.652Z,1004.57
2016-06-30T00:47:09.645Z,1004.55
2016-06-30T00:48:09.651Z,1004.56
2016-06-30T00:49:09.656Z,1004.54
2016-06-30T00:50:09.666Z,1004.53
2016-06-30T00:51:09.668Z,1004.55
2016-06-30T00:52:09.674Z,1004.52
2016-06-30T00:53:09.683Z,1004.51
2016-06-30T00:54:09.674Z,1004.5
2016-06-30T00:55:10.078Z,1004.48
2016-06-30T00:56:09.682Z,1004.44
2016-06-30T00:57:09.691Z,1004.46
2016-06-30T00:58:09.692Z,1004.46
2016-06-30T00:59:09.701Z,1004.45
2016-06-30T01:00:09.711Z,1004.5
2016-06-30T01:01:09.707Z,1004.48
2016-06-30T01:02:09.713Z,1004.49
2016-06-30T01:03:09.717Z,1004.49
2016-06-30T01:04:09.718Z,1004.51
2016-06-30T01:05:09.728Z,1004.5
2016-06-30T01:06:09.730Z,1004.56
2016-06-30T01:07:09.751Z,1004.52
2016-06-30T01:08:09.737Z,1004.56
2016-06-30T01:09:09.747Z,1004.52
2016-06-30T01:10:09.757Z,1004.51
2016-06-30T01:11:09.756Z,1004.48
2016-06-30T01:12:09.763Z,1004.51
2016-06-30T01:13:09.763Z,1004.55
2016-06-30T01:14:09.767Z,1004.51
2016-06-30T01:15:09.781Z,1004.49
2016-06-30T01:16:09.778Z,1004.55
2016-06-30T01:17:10.077Z,1004.54
2016-06-30T01:18:09.782Z,1004.56
2016-06-30T01:19:09.790Z,1004.59
2016-06-30T01:20:09.796Z,1004.53
2016-06-30T01:21:09.801Z,1004.5
2016-06-30T01:22:09.813Z,1004.52
2016-06-30T01:23:09.808Z,1004.48
2016-06-30T01:24:09.814Z,1004.48
2016-06-30T01:25:09.819Z,1004.5
2016-06-30T01:26:09.818Z,1004.49
2016-06-30T01:27:09.827Z,1004.49
2016-06-30T01:28:09.825Z,1004.48
2016-06-30T01:29:09.846Z,1004.43
2016-06-30T01:30:09.837Z,1004.45
2016-06-30T01:31:09.850Z,1004.47
2016-06-30T01:32:10.395Z,1004.45
2016-06-30T01:33:09.854Z,1004.49
2016-06-30T01:34:09.856Z,1004.49
2016-06-30T01:35:09.859Z,1004.51
2016-06-30T01:36:09.876Z,1004.53
2016-06-30T01:37:09.869Z,1004.59
2016-06-30T01:38:09.878Z,1004.54
2016-06-30T01:39:09.878Z,1004.54
2016-06-30T01:40:09.888Z,1004.54
2016-06-30T01:41:09.895Z,1004.55
2016-06-30T01:42:09.895Z,1004.6
2016-06-30T01:43:09.953Z,1004.55
2016-06-30T01:44:09.905Z,1004.57
2016-06-30T01:45:09.910Z,1004.58
2016-06-30T01:46:09.926Z,1004.67
2016-06-30T01:47:09.910Z,1004.58
2016-06-30T01:48:09.922Z,1004.57
2016-06-30T01:49:09.924Z,1004.54
2016-06-30T01:50:09.933Z,1004.6
2016-06-30T01:51:09.956Z,1004.65
2016-06-30T01:52:09.941Z,1004.61
2016-06-30T01:53:09.947Z,1004.63
2016-06-30T01:54:10.106Z,1004.67
2016-06-30T01:55:09.965Z,1004.66
2016-06-30T01:56:09.969Z,1004.65
2016-06-30T01:57:09.965Z,1004.68
2016-06-30T01:58:09.997Z,1004.68
2016-06-30T01:59:09.976Z,1004.62
2016-06-30T02:00:09.980Z,1004.61
2016-06-30T02:01:09.979Z,1004.64
2016-06-30T02:02:09.988Z,1004.68
2016-06-30T02:03:11.094Z,1004.64
2016-06-30T02:04:10.011Z,1004.64
2016-06-30T02:05:10.002Z,1004.68
2016-06-30T02:06:10.002Z,1004.63
2016-06-30T02:07:10.011Z,1004.67
2016-06-30T02:08:10.012Z,1004.68
2016-06-30T02:09:10.018Z,1004.63
2016-06-30T02:10:10.026Z,1004.64
2016-06-30T02:11:10.029Z,1004.6
2016-06-30T02:12:10.028Z,1004.63
2016-06-30T02:13:10.036Z,1004.63
2016-06-30T02:14:10.039Z,1004.61
2016-06-30T02:15:10.054Z,1004.6
2016-06-30T02:16:10.148Z,1004.6
2016-06-30T02:17:10.056Z,1004.61
2016-06-30T02:18:10.064Z,1004.64
2016-06-30T02:19:10.068Z,1004.56
2016-06-30T02:20:10.073Z,1004.6
2016-06-30T02:21:10.076Z,1004.62
2016-06-30T02:22:10.079Z,1004.62
2016-06-30T02:23:10.088Z,1004.66
2016-06-30T02:24:10.088Z,1004.64
2016-06-30T02:25:10.094Z,1004.65
2016-06-30T02:26:10.100Z,1004.66
2016-06-30T02:27:10.107Z,1004.63
2016-06-30T02:28:10.124Z,1004.62
2016-06-30T02:29:10.114Z,1004.6
2016-06-30T02:30:10.121Z,1004.61
2016-06-30T02:31:10.123Z,1004.64
2016-06-30T02:32:10.127Z,1004.57
2016-06-30T02:33:10.134Z,1004.58
2016-06-30T02:34:10.133Z,1004.59
2016-06-30T02:35:10.158Z,1004.7
2016-06-30T02:36:10.150Z,1004.68
2016-06-30T02:37:10.153Z,1004.67
2016-06-30T02:38:10.156Z,1004.67
2016-06-30T02:39:10.168Z,1004.66
2016-06-30T02:40:11.283Z,1004.71
2016-06-30T02:41:10.171Z,1004.68
2016-06-30T02:42:10.176Z,1004.7
2016-06-30T02:43:10.233Z,1004.67
2016-06-30T02:44:10.235Z,1004.63
2016-06-30T02:45:10.203Z,1004.63
2016-06-30T02:46:10.197Z,1004.67
2016-06-30T02:47:10.206Z,1004.68
2016-06-30T02:48:10.206Z,1004.69
2016-06-30T02:49:10.213Z,1004.68
2016-06-30T02:50:10.218Z,1004.7
2016-06-30T02:51:10.229Z,1004.78
2016-06-30T02:52:10.226Z,1004.78
2016-06-30T02:53:10.229Z,1004.77
2016-06-30T02:54:10.234Z,1004.82
2016-06-30T02:55:10.238Z,1004.8
2016-06-30T02:56:10.245Z,1004.77
2016-06-30T02:57:10.256Z,1004.83
2016-06-30T02:58:10.255Z,1004.82
2016-06-30T02:59:10.259Z,1004.85
2016-06-30T03:00:10.262Z,1004.84
2016-06-30T03:01:10.267Z,1004.91
2016-06-30T03:02:11.369Z,1004.88
2016-06-30T03:03:10.273Z,1004.93
2016-06-30T03:04:10.285Z,1004.93
2016-06-30T03:05:10.284Z,1004.92
2016-06-30T03:06:10.290Z,1004.99
2016-06-30T03:07:10.297Z,1004.94
2016-06-30T03:08:10.300Z,1004.9
2016-06-30T03:09:10.306Z,1004.95
2016-06-30T03:10:10.313Z,1004.95
2016-06-30T03:11:10.314Z,1004.97
2016-06-30T03:12:10.322Z,1004.96
2016-06-30T03:13:10.332Z,1004.99
2016-06-30T03:14:10.333Z,1004.96
2016-06-30T03:15:10.340Z,1004.98
2016-06-30T03:16:10.336Z,1004.97
2016-06-30T03:17:10.337Z,1004.99
2016-06-30T03:18:10.343Z,1004.98
2016-06-30T03:19:10.354Z,1005.04
2016-06-30T03:20:10.365Z,1005.05
2016-06-30T03:21:10.352Z,1005.04
2016-06-30T03:22:10.415Z,1005.02
2016-06-30T03:23:10.418Z,1005.04
2016-06-30T03:24:11.215Z,1005.05
2016-06-30T03:25:10.370Z,1005.07
2016-06-30T03:26:10.399Z,1005.06
2016-06-30T03:27:10.376Z,1005.05
2016-06-30T03:28:10.384Z,1005.03
2016-06-30T03:29:10.386Z,1005.05
2016-06-30T03:30:10.389Z,1005.05
2016-06-30T03:31:10.394Z,1005.07
2016-06-30T03:32:10.401Z,1005
2016-06-30T03:33:10.405Z,1005.07
2016-06-30T03:34:10.409Z,1005.05
2016-06-30T03:35:10.409Z,1005.05
2016-06-30T03:36:10.411Z,1005.04
2016-06-30T03:37:10.420Z,1005.01
2016-06-30T03:38:10.419Z,1005.03
2016-06-30T03:39:10.425Z,1005.02
2016-06-30T03:40:10.434Z,1005.04
2016-06-30T03:41:10.459Z,1005.04
2016-06-30T03:42:10.471Z,1005.05
2016-06-30T03:43:10.449Z,1005.06
2016-06-30T03:44:10.447Z,1005.06
2016-06-30T03:45:10.453Z,1005.07
2016-06-30T03:46:10.962Z,1005.06
2016-06-30T03:47:10.468Z,1005.11
2016-06-30T03:48:10.468Z,1005.14
2016-06-30T03:49:10.471Z,1005.15
2016-06-30T03:50:10.479Z,1005.14
2016-06-30T03:51:10.478Z,1005.17
2016-06-30T03:52:10.480Z,1005.18
2016-06-30T03:53:10.487Z,1005.16
2016-06-30T03:54:10.493Z,1005.19
2016-06-30T03:55:10.494Z,1005.17
2016-06-30T03:56:10.498Z,1005.19
2016-06-30T03:57:10.503Z,1005.23
2016-06-30T03:58:10.509Z,1005.14
2016-06-30T03:59:10.510Z,1005.2
2016-06-30T04:00:10.515Z,1005.23
2016-06-30T04:01:10.820Z,1005.26
2016-06-30T04:02:10.523Z,1005.15
2016-06-30T04:03:10.532Z,1005.29
2016-06-30T04:04:10.527Z,1005.26
2016-06-30T04:05:10.534Z,1005.27
2016-06-30T04:06:10.542Z,1005.27
2016-06-30T04:07:10.545Z,1005.34
2016-06-30T04:08:10.547Z,1005.29
2016-06-30T04:09:10.556Z,1005.3
2016-06-30T04:10:10.555Z,1005.25
2016-06-30T04:11:10.577Z,1005.29
2016-06-30T04:12:10.571Z,1005.27
2016-06-30T04:13:10.569Z,1005.3
2016-06-30T04:14:10.583Z,1005.27
2016-06-30T04:15:10.583Z,1005.32
2016-06-30T04:16:10.587Z,1005.24
2016-06-30T04:17:10.589Z,1005.27
2016-06-30T04:18:10.594Z,1005.23
2016-06-30T04:19:10.594Z,1005.31
2016-06-30T04:20:10.601Z,1005.31
2016-06-30T04:21:10.602Z,1005.3
2016-06-30T04:22:10.608Z,1005.35
2016-06-30T04:23:11.057Z,1005.36
2016-06-30T04:24:10.610Z,1005.3
2016-06-30T04:25:10.621Z,1005.33
2016-06-30T04:26:10.624Z,1005.33
2016-06-30T04:27:10.626Z,1005.33
2016-06-30T04:28:10.629Z,1005.35
2016-06-30T04:29:10.634Z,1005.34
2016-06-30T04:30:10.639Z,1005.34
2016-06-30T04:31:10.652Z,1005.33
2016-06-30T04:32:10.647Z,1005.38
2016-06-30T04:33:10.651Z,1005.38
2016-06-30T04:34:10.655Z,1005.34
2016-06-30T04:35:10.666Z,1005.35
2016-06-30T04:36:10.662Z,1005.37
2016-06-30T04:37:10.666Z,1005.39
2016-06-30T04:38:10.669Z,1005.36
2016-06-30T04:39:10.676Z,1005.37
2016-06-30T04:40:10.677Z,1005.36
2016-06-30T04:41:10.685Z,1005.39
2016-06-30T04:42:10.683Z,1005.4
2016-06-30T04:43:10.692Z,1005.43
2016-06-30T04:44:10.707Z,1005.44
2016-06-30T04:45:10.950Z,1005.47
2016-06-30T04:46:10.710Z,1005.45
2016-06-30T04:47:10.710Z,1005.44
2016-06-30T04:48:10.716Z,1005.49
2016-06-30T04:49:10.718Z,1005.45
2016-06-30T04:50:10.720Z,1005.43
2016-06-30T04:51:10.724Z,1005.45
2016-06-30T04:52:10.728Z,1005.44
2016-06-30T04:53:10.735Z,1005.45
2016-06-30T04:54:10.732Z,1005.45
2016-06-30T04:55:10.735Z,1005.5
2016-06-30T04:56:10.755Z,1005.5
2016-06-30T04:57:10.746Z,1005.47
2016-06-30T04:58:10.747Z,1005.5
2016-06-30T04:59:10.757Z,1005.44
2016-06-30T05:00:10.760Z,1005.42
2016-06-30T05:01:10.764Z,1005.44
2016-06-30T05:02:10.768Z,1005.51
2016-06-30T05:03:10.789Z,1005.46
2016-06-30T05:04:10.779Z,1005.47
2016-06-30T05:05:10.783Z,1005.46
2016-06-30T05:06:10.784Z,1005.53
2016-06-30T05:07:10.784Z,1005.49
2016-06-30T05:08:10.792Z,1005.53
2016-06-30T05:09:10.797Z,1005.55
2016-06-30T05:10:10.802Z,1005.5
2016-06-30T05:11:10.802Z,1005.49
2016-06-30T05:12:10.809Z,1005.51
2016-06-30T05:13:10.815Z,1005.56
2016-06-30T05:14:10.818Z,1005.55
2016-06-30T05:15:10.823Z,1005.51
2016-06-30T05:16:10.830Z,1005.55
2016-06-30T05:17:10.834Z,1005.55
2016-06-30T05:18:10.838Z,1005.55
2016-06-30T05:19:10.845Z,1005.55
2016-06-30T05:20:10.840Z,1005.54
2016-06-30T05:21:10.868Z,1005.53
2016-06-30T05:22:10.849Z,1005.58
2016-06-30T05:23:10.852Z,1005.52
2016-06-30T05:24:10.859Z,1005.54
2016-06-30T05:25:10.870Z,1005.56
2016-06-30T05:26:10.866Z,1005.59
2016-06-30T05:27:10.868Z,1005.59
2016-06-30T05:28:10.879Z,1005.62
2016-06-30T05:29:10.881Z,1005.64
2016-06-30T05:30:10.893Z,1005.59
2016-06-30T05:31:11.993Z,1005.63
2016-06-30T05:32:10.899Z,1005.61
2016-06-30T05:33:10.897Z,1005.59
2016-06-30T05:34:10.908Z,1005.58
2016-06-30T05:35:10.904Z,1005.59
2016-06-30T05:36:10.914Z,1005.6
2016-06-30T05:37:10.916Z,1005.57
2016-06-30T05:38:10.917Z,1005.63
2016-06-30T05:39:10.926Z,1005.59
2016-06-30T05:40:10.930Z,1005.58
2016-06-30T05:41:10.935Z,1005.58
2016-06-30T05:42:10.938Z,1005.6
2016-06-30T05:43:10.941Z,1005.59
2016-06-30T05:44:10.945Z,1005.59
2016-06-30T05:45:10.954Z,1005.59
2016-06-30T05:46:10.955Z,1005.65
2016-06-30T05:47:10.959Z,1005.62
2016-06-30T05:48:10.955Z,1005.59
2016-06-30T05:49:10.970Z,1005.6
2016-06-30T05:50:10.979Z,1005.59
2016-06-30T05:51:10.979Z,1005.66
2016-06-30T05:52:10.989Z,1005.55
2016-06-30T05:53:11.631Z,1005.59
2016-06-30T05:54:10.994Z,1005.6
2016-06-30T05:55:10.992Z,1005.65
2016-06-30T05:56:11.000Z,1005.6
2016-06-30T05:57:11.002Z,1005.61
2016-06-30T05:58:11.012Z,1005.6
2016-06-30T05:59:11.021Z,1005.59
2016-06-30T06:00:11.023Z,1005.62
2016-06-30T06:01:11.021Z,1005.6
2016-06-30T06:02:11.025Z,1005.61
2016-06-30T06:03:11.032Z,1005.61
2016-06-30T06:04:11.035Z,1005.65
2016-06-30T06:05:11.040Z,1005.62
2016-06-30T06:06:11.050Z,1005.69
2016-06-30T06:07:11.054Z,1005.65
2016-06-30T06:08:11.055Z,1005.66
2016-06-30T06:09:11.069Z,1005.68
2016-06-30T06:10:11.067Z,1005.68
2016-06-30T06:11:11.074Z,1005.71
2016-06-30T06:12:11.073Z,1005.64
2016-06-30T06:13:11.074Z,1005.64
2016-06-30T06:14:11.084Z,1005.66
2016-06-30T06:15:11.439Z,1005.65
2016-06-30T06:16:11.104Z,1005.65
2016-06-30T06:17:11.096Z,1005.68
2016-06-30T06:18:11.106Z,1005.71
2016-06-30T06:19:11.108Z,1005.67
2016-06-30T06:20:11.114Z,1005.63
2016-06-30T06:21:11.123Z,1005.64
2016-06-30T06:22:11.126Z,1005.64
2016-06-30T06:23:11.123Z,1005.68
2016-06-30T06:24:11.131Z,1005.73
2016-06-30T06:25:11.142Z,1005.71
2016-06-30T06:26:11.141Z,1005.7
2016-06-30T06:27:11.143Z,1005.68
2016-06-30T06:28:11.150Z,1005.71
2016-06-30T06:29:11.147Z,1005.7
2016-06-30T06:30:11.657Z,1005.68
2016-06-30T06:31:11.163Z,1005.79
2016-06-30T06:32:11.166Z,1005.75
2016-06-30T06:33:11.170Z,1005.78
2016-06-30T06:34:11.176Z,1005.8
2016-06-30T06:35:11.174Z,1005.85
2016-06-30T06:36:11.181Z,1005.84
2016-06-30T06:37:11.198Z,1005.84
2016-06-30T06:38:11.197Z,1005.83
2016-06-30T06:39:11.202Z,1005.84
2016-06-30T06:40:11.199Z,1005.88
2016-06-30T06:41:11.201Z,1005.91
2016-06-30T06:42:11.207Z,1006.07
2016-06-30T06:43:11.211Z,1006.28
2016-06-30T06:44:11.219Z,1006.22
2016-06-30T06:45:11.219Z,1006.05
2016-06-30T06:46:11.231Z,1006.01
2016-06-30T06:47:11.231Z,1006.14
2016-06-30T06:48:11.236Z,1005.97
2016-06-30T06:49:11.240Z,1005.99
2016-06-30T06:50:11.247Z,1005.93
2016-06-30T06:51:11.250Z,1005.88
2016-06-30T06:52:11.806Z,1005.85
2016-06-30T06:53:11.267Z,1005.9
2016-06-30T06:54:11.266Z,1005.91
2016-06-30T06:55:11.272Z,1005.91
2016-06-30T06:56:11.276Z,1005.89
2016-06-30T06:57:11.281Z,1005.87
2016-06-30T06:58:11.289Z,1005.9
2016-06-30T06:59:11.302Z,1005.9
2016-06-30T07:00:11.302Z,1005.94
2016-06-30T07:01:11.302Z,1005.99
2016-06-30T07:02:11.302Z,1005.92
2016-06-30T07:03:11.312Z,1005.97
2016-06-30T07:04:11.318Z,1005.97
2016-06-30T07:05:11.322Z,1005.97
2016-06-30T07:06:11.327Z,1005.95
2016-06-30T07:07:11.342Z,1005.94
2016-06-30T07:08:11.335Z,1005.95
2016-06-30T07:09:11.343Z,1005.97
2016-06-30T07:10:11.349Z,1006.02
2016-06-30T07:11:11.365Z,1006.01
2016-06-30T07:12:11.362Z,1006.02
2016-06-30T07:13:11.367Z,1006.01
2016-06-30T07:14:11.467Z,1006.02
2016-06-30T07:15:11.373Z,1006.02
2016-06-30T07:16:11.379Z,1006
2016-06-30T07:17:11.384Z,1006.01
2016-06-30T07:18:11.391Z,1006.02
2016-06-30T07:19:11.392Z,1006.04
2016-06-30T07:20:11.399Z,1006
2016-06-30T07:21:11.409Z,1006.05
2016-06-30T07:22:11.407Z,1006.05
2016-06-30T07:23:11.413Z,1006
2016-06-30T07:24:11.417Z,1006.04
2016-06-30T07:25:11.421Z,1006.04
2016-06-30T07:26:11.422Z,1006.04
2016-06-30T07:27:11.430Z,1006.08
2016-06-30T07:28:11.442Z,1006.01
2016-06-30T07:29:11.440Z,1006.05
2016-06-30T07:30:11.447Z,1006.06
2016-06-30T07:31:11.447Z,1006.07
2016-06-30T07:32:11.457Z,1006.06
2016-06-30T07:33:11.457Z,1006.11
2016-06-30T07:34:11.460Z,1006.07
2016-06-30T07:35:11.473Z,1006.08
2016-06-30T07:36:11.470Z,1006.09
2016-06-30T07:37:11.476Z,1006.13
2016-06-30T07:38:12.437Z,1006.12
2016-06-30T07:39:11.484Z,1006.1
2016-06-30T07:40:11.494Z,1006.11
2016-06-30T07:41:11.495Z,1006.05
2016-06-30T07:42:11.508Z,1006.05
2016-06-30T07:43:11.518Z,1006
2016-06-30T07:44:11.511Z,1006.03
2016-06-30T07:45:11.512Z,1006.04
2016-06-30T07:46:11.569Z,1006.01
2016-06-30T07:47:11.521Z,1005.98
2016-06-30T07:48:11.527Z,1006.04
2016-06-30T07:49:11.533Z,1006.09
2016-06-30T07:50:11.534Z,1006.14
2016-06-30T07:51:11.540Z,1006.16
2016-06-30T07:52:11.543Z,1006.14
2016-06-30T07:53:11.548Z,1006.14
2016-06-30T07:54:11.553Z,1006.15
2016-06-30T07:55:11.557Z,1006.17
2016-06-30T07:56:11.566Z,1006.16
2016-06-30T07:57:11.564Z,1006.16
2016-06-30T07:58:11.582Z,1006.2
2016-06-30T07:59:11.576Z,1006.21
2016-06-30T08:00:12.031Z,1006.23
2016-06-30T08:01:11.586Z,1006.22
2016-06-30T08:02:11.590Z,1006.24
2016-06-30T08:03:11.592Z,1006.24
2016-06-30T08:04:11.598Z,1006.23
2016-06-30T08:05:11.607Z,1006.22
2016-06-30T08:06:11.613Z,1006.23
2016-06-30T08:07:11.622Z,1006.25
2016-06-30T08:08:11.619Z,1006.26
2016-06-30T08:09:11.623Z,1006.32
2016-06-30T08:10:11.630Z,1006.27
2016-06-30T08:11:11.630Z,1006.31
2016-06-30T08:12:11.635Z,1006.29
2016-06-30T08:13:11.645Z,1006.31
2016-06-30T08:14:11.655Z,1006.31
2016-06-30T08:15:11.649Z,1006.35
2016-06-30T08:16:11.658Z,1006.33
2016-06-30T08:17:11.658Z,1006.31
2016-06-30T08:18:11.661Z,1006.3
2016-06-30T08:19:11.668Z,1006.3
2016-06-30T08:20:11.679Z,1006.28
2016-06-30T08:21:11.727Z,1006.33
2016-06-30T08:22:12.432Z,1006.3
2016-06-30T08:23:11.691Z,1006.27
2016-06-30T08:24:11.697Z,1006.35
2016-06-30T08:25:11.700Z,1006.38
2016-06-30T08:26:11.707Z,1006.34
2016-06-30T08:27:11.705Z,1006.35
2016-06-30T08:28:11.762Z,1006.33
2016-06-30T08:29:11.718Z,1006.35
2016-06-30T08:30:11.723Z,1006.34
2016-06-30T08:31:11.736Z,1006.28
2016-06-30T08:32:11.732Z,1006.33
2016-06-30T08:33:11.739Z,1006.31
2016-06-30T08:34:11.746Z,1006.28
2016-06-30T08:35:11.759Z,1006.3
2016-06-30T08:36:11.760Z,1006.28
2016-06-30T08:37:11.759Z,1006.31
2016-06-30T08:38:11.766Z,1006.3
2016-06-30T08:39:11.769Z,1006.28
2016-06-30T08:40:11.792Z,1006.29
2016-06-30T08:41:11.781Z,1006.37
2016-06-30T08:42:11.796Z,1006.32
2016-06-30T08:43:11.788Z,1006.29
2016-06-30T08:44:12.549Z,1006.32
2016-06-30T08:45:11.804Z,1006.34
2016-06-30T08:46:11.806Z,1006.39
2016-06-30T08:47:11.859Z,1006.37
2016-06-30T08:48:11.816Z,1006.36
2016-06-30T08:49:11.837Z,1006.34
2016-06-30T08:50:11.823Z,1006.29
2016-06-30T08:51:11.830Z,1006.35
2016-06-30T08:52:11.846Z,1006.3
2016-06-30T08:53:11.876Z,1006.33
2016-06-30T08:54:11.846Z,1006.34
2016-06-30T08:55:11.852Z,1006.32
2016-06-30T08:56:11.863Z,1006.31
2016-06-30T08:57:11.863Z,1006.39
2016-06-30T08:58:11.877Z,1006.36
2016-06-30T08:59:12.476Z,1006.35
2016-06-30T09:00:11.881Z,1006.38
2016-06-30T09:01:11.886Z,1006.36
2016-06-30T09:02:11.888Z,1006.36
2016-06-30T09:03:11.900Z,1006.4
2016-06-30T09:04:11.901Z,1006.4
2016-06-30T09:05:11.910Z,1006.39
2016-06-30T09:06:11.911Z,1006.36
2016-06-30T09:07:11.922Z,1006.39
2016-06-30T09:08:11.925Z,1006.4
2016-06-30T09:09:11.931Z,1006.4
2016-06-30T09:10:11.938Z,1006.41
2016-06-30T09:11:11.954Z,1006.45
2016-06-30T09:12:11.947Z,1006.41
2016-06-30T09:13:11.950Z,1006.43
2016-06-30T09:14:11.957Z,1006.41
2016-06-30T09:15:11.961Z,1006.46
2016-06-30T09:16:11.969Z,1006.47
2016-06-30T09:17:11.979Z,1006.52
2016-06-30T09:18:11.981Z,1006.48
2016-06-30T09:19:11.990Z,1006.45
2016-06-30T09:20:11.989Z,1006.42
2016-06-30T09:21:11.996Z,1006.41
2016-06-30T09:22:12.004Z,1006.38
2016-06-30T09:23:12.023Z,1006.38
2016-06-30T09:24:12.022Z,1006.32
2016-06-30T09:25:12.026Z,1006.4
2016-06-30T09:26:12.035Z,1006.43
2016-06-30T09:27:12.031Z,1006.44
2016-06-30T09:28:12.034Z,1006.42
2016-06-30T09:29:12.047Z,1006.41
2016-06-30T09:30:12.053Z,1006.47
2016-06-30T09:31:12.055Z,1006.46
2016-06-30T09:32:12.062Z,1006.55
2016-06-30T09:33:12.065Z,1006.55
2016-06-30T09:34:12.075Z,1006.54
2016-06-30T09:35:12.081Z,1006.48
2016-06-30T09:36:12.086Z,1006.51
2016-06-30T09:37:12.091Z,1006.51
2016-06-30T09:38:12.102Z,1006.52
2016-06-30T09:39:12.105Z,1006.54
2016-06-30T09:40:12.112Z,1006.49
2016-06-30T09:41:12.125Z,1006.53
2016-06-30T09:42:12.123Z,1006.57
2016-06-30T09:43:12.129Z,1006.51
2016-06-30T09:44:12.129Z,1006.53
2016-06-30T09:45:13.191Z,1006.51
2016-06-30T09:46:12.145Z,1006.46
2016-06-30T09:47:12.156Z,1006.42
2016-06-30T09:48:12.155Z,1006.44
2016-06-30T09:49:12.209Z,1006.44
2016-06-30T09:50:12.164Z,1006.46
2016-06-30T09:51:12.175Z,1006.49
2016-06-30T09:52:12.177Z,1006.51
2016-06-30T09:53:12.184Z,1006.5
2016-06-30T09:54:12.238Z,1006.51
2016-06-30T09:55:12.198Z,1006.49
2016-06-30T09:56:12.198Z,1006.52
2016-06-30T09:57:12.205Z,1006.54
2016-06-30T09:58:12.212Z,1006.52
2016-06-30T09:59:12.222Z,1006.51
2016-06-30T10:00:12.230Z,1006.54
2016-06-30T10:01:12.231Z,1006.55
2016-06-30T10:02:12.239Z,1006.57
2016-06-30T10:03:12.243Z,1006.59
2016-06-30T10:04:12.255Z,1006.57
2016-06-30T10:05:12.260Z,1006.53
2016-06-30T10:06:12.301Z,1006.51
2016-06-30T10:07:12.675Z,1006.56
2016-06-30T10:08:12.272Z,1006.53
2016-06-30T10:09:12.278Z,1006.56
2016-06-30T10:10:12.284Z,1006.58
2016-06-30T10:11:12.292Z,1006.58
2016-06-30T10:12:12.302Z,1006.59
2016-06-30T10:13:12.301Z,1006.56
2016-06-30T10:14:12.315Z,1006.56
2016-06-30T10:15:12.326Z,1006.62
2016-06-30T10:16:12.318Z,1006.55
2016-06-30T10:17:12.319Z,1006.54
2016-06-30T10:18:12.325Z,1006.64
2016-06-30T10:19:12.334Z,1006.59
2016-06-30T10:20:12.338Z,1006.55
2016-06-30T10:21:12.345Z,1006.59
2016-06-30T10:22:12.349Z,1006.6
2016-06-30T10:23:12.355Z,1006.63
2016-06-30T10:24:12.357Z,1006.66
2016-06-30T10:25:12.371Z,1006.65
2016-06-30T10:26:12.371Z,1006.65
2016-06-30T10:27:12.375Z,1006.72
2016-06-30T10:28:12.382Z,1006.66
2016-06-30T10:29:12.483Z,1006.72
2016-06-30T10:30:12.395Z,1006.69
2016-06-30T10:31:12.396Z,1006.66
2016-06-30T10:32:12.404Z,1006.62
2016-06-30T10:33:12.407Z,1006.61
2016-06-30T10:34:12.412Z,1006.64
2016-06-30T10:35:12.425Z,1006.64
2016-06-30T10:36:12.433Z,1006.65
2016-06-30T10:37:12.430Z,1006.64
2016-06-30T10:38:12.433Z,1006.67
2016-06-30T10:39:12.434Z,1006.64
2016-06-30T10:40:12.440Z,1006.69
2016-06-30T10:41:12.451Z,1006.68
2016-06-30T10:42:12.459Z,1006.65
2016-06-30T10:43:12.477Z,1006.68
2016-06-30T10:44:12.466Z,1006.71
2016-06-30T10:45:12.489Z,1006.7
2016-06-30T10:46:12.479Z,1006.69
2016-06-30T10:47:12.482Z,1006.67
2016-06-30T10:48:12.488Z,1006.71
2016-06-30T10:49:12.547Z,1006.74
2016-06-30T10:50:12.502Z,1006.75
2016-06-30T10:51:12.504Z,1006.72
2016-06-30T10:52:12.515Z,1006.78
2016-06-30T10:53:13.654Z,1006.75
2016-06-30T10:54:12.523Z,1006.75
2016-06-30T10:55:12.533Z,1006.74
2016-06-30T10:56:12.534Z,1006.74
2016-06-30T10:57:12.548Z,1006.75
2016-06-30T10:58:12.548Z,1006.79
2016-06-30T10:59:12.549Z,1006.81
2016-06-30T11:00:12.565Z,1006.8
2016-06-30T11:01:12.566Z,1006.81
2016-06-30T11:02:12.569Z,1006.82
2016-06-30T11:03:12.573Z,1006.86
2016-06-30T11:04:12.585Z,1006.81
2016-06-30T11:05:12.589Z,1006.79
2016-06-30T11:06:12.591Z,1006.79
2016-06-30T11:07:12.602Z,1006.79
2016-06-30T11:08:12.606Z,1006.79
2016-06-30T11:09:12.606Z,1006.76
2016-06-30T11:10:12.610Z,1006.77
2016-06-30T11:11:12.620Z,1006.77
2016-06-30T11:12:12.625Z,1006.76
2016-06-30T11:13:12.636Z,1006.77
2016-06-30T11:14:12.634Z,1006.73
2016-06-30T11:15:12.638Z,1006.76
2016-06-30T11:16:12.643Z,1006.72
2016-06-30T11:17:12.649Z,1006.78
2016-06-30T11:18:12.654Z,1006.74
2016-06-30T11:19:12.663Z,1006.73
2016-06-30T11:20:12.665Z,1006.74
2016-06-30T11:21:12.671Z,1006.71
2016-06-30T11:22:12.674Z,1006.75
2016-06-30T11:23:12.685Z,1006.74
2016-06-30T11:24:12.688Z,1006.74
2016-06-30T11:25:12.704Z,1006.78
2016-06-30T11:26:12.697Z,1006.82
2016-06-30T11:27:12.711Z,1006.81
2016-06-30T11:28:12.911Z,1006.82
2016-06-30T11:29:12.711Z,1006.77
2016-06-30T11:30:12.725Z,1006.78
2016-06-30T11:31:12.726Z,1006.77
2016-06-30T11:32:12.736Z,1006.81
2016-06-30T11:33:12.737Z,1006.78
2016-06-30T11:34:12.743Z,1006.8
2016-06-30T11:35:12.748Z,1006.79
2016-06-30T11:36:12.764Z,1006.81
2016-06-30T11:37:12.764Z,1006.86
2016-06-30T11:38:12.765Z,1006.83
2016-06-30T11:39:12.772Z,1006.8
2016-06-30T11:40:12.782Z,1006.9
2016-06-30T11:41:12.788Z,1006.81
2016-06-30T11:42:12.789Z,1006.82
2016-06-30T11:43:12.797Z,1006.83
2016-06-30T11:44:12.801Z,1006.83
2016-06-30T11:45:12.808Z,1006.78
2016-06-30T11:46:12.811Z,1006.8
2016-06-30T11:47:12.821Z,1006.82
2016-06-30T11:48:12.832Z,1006.82
2016-06-30T11:49:12.882Z,1006.84
2016-06-30T11:50:12.838Z,1006.83
2016-06-30T11:51:12.845Z,1006.81
2016-06-30T11:52:12.865Z,1006.81
2016-06-30T11:53:12.850Z,1006.83
2016-06-30T11:54:12.859Z,1006.79
2016-06-30T11:55:12.866Z,1006.81
2016-06-30T11:56:12.871Z,1006.83
2016-06-30T11:57:12.881Z,1006.85
2016-06-30T11:58:12.881Z,1006.86
2016-06-30T11:59:12.889Z,1006.87
2016-06-30T12:00:12.891Z,1006.89
2016-06-30T12:01:12.894Z,1006.85
2016-06-30T12:02:12.899Z,1006.84
2016-06-30T12:03:12.911Z,1006.87
2016-06-30T12:04:12.910Z,1006.81
2016-06-30T12:05:12.918Z,1006.86
2016-06-30T12:06:12.930Z,1006.82
2016-06-30T12:07:12.930Z,1006.83
2016-06-30T12:08:12.933Z,1006.83